createdAt,value
2023-12-17T00:02:15.230Z,1023.14
2023-12-17T00:07:14.871Z,1023.15
2023-12-17T00:12:14.891Z,1023.22
2023-12-17T00:17:14.744Z,1023.17
2023-12-17T00:22:14.752Z,1023.15
2023-12-17T00:27:14.714Z,1023.25
2023-12-17T00:32:14.551Z,1023.10
2023-12-17T00:37:14.444Z,1023.13
2023-12-17T00:42:14.452Z,1023.14
2023-12-17T00:47:14.336Z,1023.06
2023-12-17T00:52:14.262Z,1023.04
2023-12-17T00:57:14.241Z,1022.93
2023-12-17T01:02:14.152Z,1022.96
2023-12-17T01:07:14.072Z,1022.90
2023-12-17T01:12:14.062Z,1022.82
2023-12-17T01:17:13.929Z,1022.82
2023-12-17T01:22:13.867Z,1022.88
2023-12-17T01:27:14.010Z,1022.83
2023-12-17T01:32:13.724Z,1022.88
2023-12-17T01:37:13.641Z,1022.83
2023-12-17T01:42:13.668Z,1023.00
2023-12-17T01:47:13.505Z,1022.89
2023-12-17T01:52:13.439Z,1022.80
2023-12-17T01:57:13.421Z,1022.86
2023-12-17T02:02:13.299Z,1022.74
2023-12-17T02:07:13.280Z,1022.69
2023-12-17T02:12:13.192Z,1022.59
2023-12-17T02:17:13.136Z,1022.56
2023-12-17T02:22:13.079Z,1022.53
2023-12-17T02:27:13.038Z,1022.54
2023-12-17T02:32:12.955Z,1022.70
2023-12-17T02:37:12.874Z,1022.84
2023-12-17T02:42:12.902Z,1022.81
2023-12-17T02:47:12.772Z,1022.56
2023-12-17T02:52:12.698Z,1022.70
2023-12-17T02:57:12.668Z,1022.69
2023-12-17T03:02:12.573Z,1022.71
2023-12-17T03:07:12.511Z,1022.35
2023-12-17T03:12:12.499Z,1022.31
2023-12-17T03:17:12.461Z,1022.46
2023-12-17T03:22:12.313Z,1022.56
2023-12-17T03:27:12.375Z,1022.40
2023-12-17T03:32:12.193Z,1022.35
2023-12-17T03:37:12.100Z,1022.35
2023-12-17T03:42:12.068Z,1022.31
2023-12-17T03:47:11.964Z,1022.16
2023-12-17T03:52:11.917Z,1022.10
2023-12-17T03:57:11.939Z,1021.94
2023-12-17T04:02:11.828Z,1021.87
2023-12-17T04:07:11.685Z,1021.72
2023-12-17T04:12:11.711Z,1021.78
2023-12-17T04:17:11.552Z,1021.87
2023-12-17T04:22:11.497Z,1021.84
2023-12-17T04:27:11.701Z,1021.87
2023-12-17T04:32:11.341Z,1021.84
2023-12-17T04:37:11.275Z,1021.72
2023-12-17T04:42:11.233Z,1021.69
2023-12-17T04:47:11.203Z,1021.75
2023-12-17T04:52:11.095Z,1021.81
2023-12-17T04:57:11.109Z,1021.80
2023-12-17T05:02:10.982Z,1021.78
2023-12-17T05:07:10.880Z,1021.89
2023-12-17T05:12:10.900Z,1021.82
2023-12-17T05:17:10.731Z,1021.83
2023-12-17T05:22:10.736Z,1021.83
2023-12-17T05:27:10.740Z,1021.93
2023-12-17T05:32:10.603Z,1021.85
2023-12-17T05:37:10.516Z,1021.90
2023-12-17T05:42:10.508Z,1022.06
2023-12-17T05:47:10.377Z,1022.20
2023-12-17T05:52:10.337Z,1022.20
2023-12-17T05:57:10.268Z,1022.22
2023-12-17T06:02:10.223Z,1022.28
2023-12-17T06:07:10.155Z,1022.40
2023-12-17T06:12:10.223Z,1022.50
2023-12-17T06:17:10.078Z,1022.50
2023-12-17T06:22:09.958Z,1022.68
2023-12-17T06:27:09.890Z,1022.79
2023-12-17T06:32:10.649Z,1022.81
2023-12-17T06:37:09.745Z,1022.81
2023-12-17T06:42:09.736Z,1022.78
2023-12-17T06:47:18.115Z,1022.86
2023-12-17T06:52:10.628Z,1022.90
2023-12-17T06:57:09.473Z,1023.04
2023-12-17T07:02:09.413Z,1023.02
2023-12-17T07:07:09.326Z,1022.92
2023-12-17T07:12:09.303Z,1023.05
2023-12-17T07:17:09.236Z,1023.11
2023-12-17T07:22:09.229Z,1023.17
2023-12-17T07:27:09.172Z,1023.19
2023-12-17T07:32:09.060Z,1023.03
2023-12-17T07:37:08.959Z,1023.00
2023-12-17T07:42:08.926Z,1022.96
2023-12-17T07:47:08.935Z,1023.04
2023-12-17T07:52:08.725Z,1023.07
2023-12-17T07:57:08.675Z,1023.06
2023-12-17T08:02:09.205Z,1023.02
2023-12-17T08:07:08.656Z,1023.09
2023-12-17T08:12:08.676Z,1023.11
2023-12-17T08:17:08.408Z,1023.14
2023-12-17T08:22:08.539Z,1023.35
2023-12-17T08:27:08.368Z,1023.34
2023-12-17T08:32:08.204Z,1023.42
2023-12-17T08:37:08.107Z,1023.21
2023-12-17T08:42:08.968Z,1023.13
2023-12-17T08:47:07.984Z,1023.03
2023-12-17T08:52:07.971Z,1023.13
2023-12-17T08:57:07.958Z,1023.07
2023-12-17T09:02:09.105Z,1022.96
2023-12-17T09:07:07.721Z,1022.86
2023-12-17T09:12:07.712Z,1022.84
2023-12-17T09:17:07.625Z,1022.91
2023-12-17T09:22:07.533Z,1022.84
2023-12-17T09:27:07.509Z,1022.75
2023-12-17T09:32:07.409Z,1022.72
2023-12-17T09:37:07.336Z,1022.50
2023-12-17T09:42:07.305Z,1022.60
2023-12-17T09:47:07.213Z,1022.47
2023-12-17T09:52:07.155Z,1022.48
2023-12-17T09:57:07.116Z,1022.45
2023-12-17T10:02:07.033Z,1022.38
2023-12-17T10:07:06.936Z,1022.28
2023-12-17T10:12:07.009Z,1022.33
2023-12-17T10:17:06.807Z,1022.16
2023-12-17T10:22:06.728Z,1022.14
2023-12-17T10:27:06.714Z,1022.13
2023-12-17T10:32:06.648Z,1022.07
2023-12-17T10:37:06.570Z,1021.99
2023-12-17T10:42:06.574Z,1021.96
2023-12-17T10:47:06.433Z,1022.04
2023-12-17T10:52:06.413Z,1021.88
2023-12-17T10:57:06.287Z,1021.79
2023-12-17T11:02:06.194Z,1021.75
2023-12-17T11:07:06.135Z,1021.78
2023-12-17T11:12:06.170Z,1021.84
2023-12-17T11:17:06.031Z,1021.78
2023-12-17T11:22:06.100Z,1021.68
2023-12-17T11:27:05.962Z,1021.69
2023-12-17T11:32:05.812Z,1021.66
2023-12-17T11:37:05.755Z,1021.59
2023-12-17T11:42:05.715Z,1021.53
2023-12-17T11:47:05.633Z,1021.48
2023-12-17T11:52:05.555Z,1021.45
2023-12-17T11:57:05.498Z,1021.34
2023-12-17T12:02:05.424Z,1021.25
2023-12-17T12:07:05.334Z,1021.03
2023-12-17T12:12:05.272Z,1020.93
2023-12-17T12:17:05.483Z,1020.77
2023-12-17T12:22:05.180Z,1020.67
2023-12-17T12:27:05.184Z,1020.55
2023-12-17T12:32:05.007Z,1020.50
2023-12-17T12:37:04.958Z,1020.64
2023-12-17T12:42:04.926Z,1020.59
2023-12-17T12:47:04.814Z,1020.50
2023-12-17T12:52:04.754Z,1020.38
2023-12-17T12:57:04.799Z,1020.22
2023-12-17T13:02:04.617Z,1020.34
2023-12-17T13:07:04.656Z,1020.21
2023-12-17T13:12:04.567Z,1020.10
2023-12-17T13:17:04.415Z,1020.02
2023-12-17T13:22:04.386Z,1019.95
2023-12-17T13:27:04.311Z,1019.99
2023-12-17T13:32:04.223Z,1019.93
2023-12-17T13:42:04.143Z,1019.89
2023-12-17T13:47:04.101Z,1019.76
2023-12-17T13:52:03.964Z,1019.81
2023-12-17T13:57:03.921Z,1019.71
2023-12-17T14:02:03.819Z,1019.65
2023-12-17T14:07:03.754Z,1019.67
2023-12-17T14:12:03.697Z,1019.60
2023-12-17T14:17:03.627Z,1019.50
2023-12-17T14:22:03.547Z,1019.55
2023-12-17T14:27:03.613Z,1019.51
2023-12-17T14:32:03.400Z,1019.43
2023-12-17T14:37:03.362Z,1019.47
2023-12-17T14:42:03.332Z,1019.48
2023-12-17T14:47:03.555Z,1019.53
2023-12-17T14:52:03.441Z,1019.63
2023-12-17T14:57:03.459Z,1019.60
2023-12-17T15:02:03.023Z,1019.64
2023-12-17T15:07:02.961Z,1019.54
2023-12-17T15:12:02.926Z,1019.59
2023-12-17T15:17:03.116Z,1019.63
2023-12-17T15:22:02.731Z,1019.71
2023-12-17T15:27:02.781Z,1019.59
2023-12-17T15:32:02.957Z,1019.67
2023-12-17T15:37:02.548Z,1019.56
2023-12-17T15:42:02.476Z,1019.53
2023-12-17T15:47:02.692Z,1019.54
2023-12-17T15:52:02.309Z,1019.60
2023-12-17T15:57:02.327Z,1019.58
2023-12-17T16:02:02.180Z,1019.62
2023-12-17T16:07:02.176Z,1019.64
2023-12-17T16:12:02.212Z,1019.68
2023-12-17T16:17:02.018Z,1019.65
2023-12-17T16:22:01.953Z,1019.65
2023-12-17T16:27:01.952Z,1019.63
2023-12-17T16:32:01.882Z,1019.63
2023-12-17T16:37:01.746Z,1019.69
2023-12-17T16:42:01.691Z,1019.72
2023-12-17T16:47:01.630Z,1019.64
2023-12-17T16:52:01.576Z,1019.54
2023-12-17T16:57:01.604Z,1019.49
2023-12-17T17:02:01.491Z,1019.64
2023-12-17T17:07:01.359Z,1019.72
2023-12-17T17:12:01.295Z,1019.76
2023-12-17T17:17:01.252Z,1019.76
2023-12-17T17:22:01.168Z,1019.68
2023-12-17T17:27:01.183Z,1019.61
2023-12-17T17:32:01.035Z,1019.68
2023-12-17T17:37:01.114Z,1019.60
2023-12-17T17:42:00.895Z,1019.60
2023-12-17T17:47:00.795Z,1019.57
2023-12-17T17:52:00.769Z,1019.63
2023-12-17T17:57:00.693Z,1019.64
2023-12-17T18:02:00.644Z,1019.58
2023-12-17T18:07:00.561Z,1019.59
2023-12-17T18:12:00.549Z,1019.68
2023-12-17T18:17:00.415Z,1019.62
2023-12-17T18:22:00.323Z,1019.67
2023-12-17T18:27:00.408Z,1019.75
2023-12-17T18:32:00.220Z,1019.69
2023-12-17T18:37:00.206Z,1019.68
2023-12-17T18:42:01.106Z,1019.61
2023-12-17T18:47:00.347Z,1019.65
2023-12-17T18:51:59.912Z,1019.63
2023-12-17T18:56:59.994Z,1019.62
2023-12-17T19:02:01.252Z,1019.54
2023-12-17T19:06:59.777Z,1019.57
2023-12-17T19:11:59.667Z,1019.54
2023-12-17T19:16:59.642Z,1019.64
2023-12-17T19:21:59.595Z,1019.74
2023-12-17T19:26:59.508Z,1019.75
2023-12-17T19:31:59.457Z,1019.69
2023-12-17T19:36:59.383Z,1019.65
2023-12-17T19:41:59.400Z,1019.70
2023-12-17T19:46:59.222Z,1019.62
2023-12-17T19:51:59.188Z,1019.71
2023-12-17T19:57:00.034Z,1019.69
2023-12-17T20:01:59.220Z,1019.66
2023-12-17T20:06:59.251Z,1019.64
2023-12-17T20:11:58.925Z,1019.56
2023-12-17T20:16:58.868Z,1019.56
2023-12-17T20:21:58.781Z,1019.47
2023-12-17T20:26:58.749Z,1019.55
2023-12-17T20:31:58.654Z,1019.58
2023-12-17T20:36:58.607Z,1019.52
2023-12-17T20:41:59.423Z,1019.43
2023-12-17T20:46:58.714Z,1019.45
2023-12-17T20:51:59.614Z,1019.35
2023-12-17T20:56:58.532Z,1019.52
2023-12-17T21:01:58.881Z,1019.31
2023-12-17T21:06:58.177Z,1019.39
2023-12-17T21:11:58.165Z,1019.37
2023-12-17T21:16:58.074Z,1019.35
2023-12-17T21:21:57.973Z,1019.32
2023-12-17T21:26:58.619Z,1019.24
2023-12-17T21:31:57.859Z,1019.13
2023-12-17T21:36:57.838Z,1019.14
2023-12-17T21:41:57.748Z,1019.26
2023-12-17T21:46:57.685Z,1019.10
2023-12-17T21:51:57.591Z,1019.20
2023-12-17T21:57:16.936Z,1019.17
2023-12-17T22:01:58.461Z,1019.13
2023-12-17T22:06:57.381Z,1019.08
2023-12-17T22:11:57.435Z,1019.03
2023-12-17T22:16:57.355Z,1019.16
2023-12-17T22:21:57.378Z,1019.14
2023-12-17T22:26:57.161Z,1019.13
2023-12-17T22:31:57.170Z,1019.15
2023-12-17T22:36:57.056Z,1019.19
2023-12-17T22:41:56.969Z,1019.19
2023-12-17T22:46:56.880Z,1019.16
2023-12-17T22:51:56.796Z,1018.98
2023-12-17T22:56:57.438Z,1019.05
2023-12-17T23:01:56.626Z,1019.15
2023-12-17T23:06:56.600Z,1019.12
2023-12-17T23:11:56.546Z,1018.91
2023-12-17T23:16:56.697Z,1018.90
2023-12-17T23:21:56.417Z,1018.79
2023-12-17T23:26:56.330Z,1018.72
2023-12-17T23:31:56.267Z,1018.82
2023-12-17T23:36:57.196Z,1018.75
2023-12-17T23:41:56.173Z,1018.64
2023-12-17T23:46:56.132Z,1018.50
2023-12-17T23:51:56.027Z,1018.48
2023-12-17T23:56:56.166Z,1018.39
